Terminal Aerodrome Forecast
Issued by NWS Sioux Falls, SD

Home | Current Version | Previous Version | Text Only | Print | Product List | Glossary Off
Versions: 1 2 3 4 5 6 7 8 9 10 11 12 13 14 15 16 17

037
FTUS43 KFSD 231524 AAA
TAFHON
TAF AMD
KHON 231524Z 2315/2412 34012G22KT P6SM BKN015 OVC025
     FM231600 34015G23KT P6SM VCSH OVC012
     FM231900 35016G24KT P6SM VCSH OVC025
     FM232100 35016G24KT P6SM OVC040
     FM240200 35009KT P6SM BKN050
     FM240700 34005KT P6SM SCT060=

USA.gov is the U.S. government's official web portal to all federal, state and local government web resources and services.